sensor_id;sensor_type;location;lat;lon;timestamp;pressure;altitude;pressure_sealevel;temperature;humidity
75157;BME280;63736;50.076;8.198;2023-11-21T14:23:42;99502.09;;;10.08;100.00
75157;BME280;63736;50.076;8.198;2023-11-21T14:26:08;99495.31;;;10.04;100.00
75157;BME280;63736;50.076;8.198;2023-11-21T14:28:33;99502.44;;;10.04;100.00
75157;BME280;63736;50.076;8.198;2023-11-21T14:31:00;99499.53;;;10.07;100.00
75157;BME280;63736;50.076;8.198;2023-11-21T14:33:25;99492.31;;;9.98;100.00
75157;BME280;63736;50.076;8.198;2023-11-21T14:35:51;99497.50;;;9.99;100.00
75157;BME280;63736;50.076;8.198;2023-11-21T14:38:16;99501.00;;;10.00;100.00
75157;BME280;63736;50.076;8.198;2023-11-21T14:40:43;99509.75;;;10.02;100.00
75157;BME280;63736;50.076;8.198;2023-11-21T14:43:08;99509.53;;;9.94;100.00
75157;BME280;63736;50.076;8.198;2023-11-21T14:45:34;99505.03;;;9.94;100.00
75157;BME280;63736;50.076;8.198;2023-11-21T14:48:00;99521.78;;;9.96;100.00
75157;BME280;63736;50.076;8.198;2023-11-21T14:50:41;99520.91;;;9.96;100.00
75157;BME280;63736;50.076;8.198;2023-11-21T14:53:10;99518.50;;;9.92;100.00
75157;BME280;63736;50.076;8.198;2023-11-21T14:55:38;99516.34;;;9.86;100.00
75157;BME280;63736;50.076;8.198;2023-11-21T14:58:16;99526.03;;;9.87;100.00
75157;BME280;63736;50.076;8.198;2023-11-21T15:00:50;99525.56;;;9.82;100.00
75157;BME280;63736;50.076;8.198;2023-11-21T15:03:21;99536.09;;;9.84;100.00
75157;BME280;63736;50.076;8.198;2023-11-21T15:06:07;99531.03;;;9.81;100.00
75157;BME280;63736;50.076;8.198;2023-11-21T15:08:52;99540.97;;;9.79;100.00
75157;BME280;63736;50.076;8.198;2023-11-21T15:11:25;99545.69;;;9.75;100.00
75157;BME280;63736;50.076;8.198;2023-11-21T15:13:56;99551.88;;;9.75;100.00
75157;BME280;63736;50.076;8.198;2023-11-21T15:16:23;99545.09;;;9.71;100.00
75157;BME280;63736;50.076;8.198;2023-11-21T15:18:48;99553.94;;;9.72;100.00
75157;BME280;63736;50.076;8.198;2023-11-21T15:21:14;99554.56;;;9.64;100.00
75157;BME280;63736;50.076;8.198;2023-11-21T15:23:39;99549.22;;;9.64;100.00
75157;BME280;63736;50.076;8.198;2023-11-21T15:26:06;99561.81;;;9.62;100.00
75157;BME280;63736;50.076;8.198;2023-11-21T15:28:33;99560.16;;;9.61;100.00
75157;BME280;63736;50.076;8.198;2023-11-21T15:30:59;99562.44;;;9.54;100.00
75157;BME280;63736;50.076;8.198;2023-11-21T15:33:24;99565.59;;;9.48;100.00
75157;BME280;63736;50.076;8.198;2023-11-21T15:35:52;99576.00;;;9.51;100.00
75157;BME280;63736;50.076;8.198;2023-11-21T15:38:19;99573.47;;;9.50;100.00
75157;BME280;63736;50.076;8.198;2023-11-21T15:40:45;99572.38;;;9.52;100.00
75157;BME280;63736;50.076;8.198;2023-11-21T15:43:11;99573.69;;;9.47;100.00
75157;BME280;63736;50.076;8.198;2023-11-21T15:45:38;99578.94;;;9.48;100.00
75157;BME280;63736;50.076;8.198;2023-11-21T15:48:04;99585.09;;;9.49;100.00
75157;BME280;63736;50.076;8.198;2023-11-21T15:50:30;99582.56;;;9.47;100.00
75157;BME280;63736;50.076;8.198;2023-11-21T15:52:57;99579.91;;;9.47;100.00
75157;BME280;63736;50.076;8.198;2023-11-21T15:55:22;99584.63;;;9.43;100.00
75157;BME280;63736;50.076;8.198;2023-11-21T15:57:48;99582.78;;;9.44;100.00
75157;BME280;63736;50.076;8.198;2023-11-21T16:17:02;99594.16;;;9.35;100.00
75157;BME280;63736;50.076;8.198;2023-11-21T16:19:28;99598.66;;;9.34;100.00
75157;BME280;63736;50.076;8.198;2023-11-21T16:39:09;99632.31;;;9.24;100.00
75157;BME280;63736;50.076;8.198;2023-11-21T16:41:37;99627.00;;;9.24;100.00
75157;BME280;63736;50.076;8.198;2023-11-21T16:44:02;99622.63;;;9.23;100.00
75157;BME280;63736;50.076;8.198;2023-11-21T16:46:27;99627.25;;;9.21;100.00
75157;BME280;63736;50.076;8.198;2023-11-21T16:48:53;99633.53;;;9.20;100.00
75157;BME280;63736;50.076;8.198;2023-11-21T16:51:18;99636.91;;;9.22;100.00
75157;BME280;63736;50.076;8.198;2023-11-21T16:53:44;99641.28;;;9.23;100.00
75157;BME280;63736;50.076;8.198;2023-11-21T16:59:31;99645.91;;;9.21;100.00
75157;BME280;63736;50.076;8.198;2023-11-21T17:05:18;99654.00;;;9.19;100.00
75157;BME280;63736;50.076;8.198;2023-11-21T17:07:46;99659.44;;;9.18;100.00
75157;BME280;63736;50.076;8.198;2023-11-21T17:10:12;99669.03;;;9.20;100.00
75157;BME280;63736;50.076;8.198;2023-11-21T17:12:38;99665.53;;;9.20;100.00
75157;BME280;63736;50.076;8.198;2023-11-21T17:15:04;99673.63;;;9.18;100.00
75157;BME280;63736;50.076;8.198;2023-11-21T17:17:29;99678.09;;;9.18;100.00
75157;BME280;63736;50.076;8.198;2023-11-21T17:19:54;99681.72;;;9.17;100.00
75157;BME280;63736;50.076;8.198;2023-11-21T17:22:20;99679.94;;;9.17;100.00
75157;BME280;63736;50.076;8.198;2023-11-21T17:24:47;99683.56;;;9.16;100.00
75157;BME280;63736;50.076;8.198;2023-11-21T17:27:12;99687.06;;;9.17;100.00
75157;BME280;63736;50.076;8.198;2023-11-21T17:29:38;99687.31;;;9.14;100.00
75157;BME280;63736;50.076;8.198;2023-11-21T17:32:04;99686.47;;;9.13;100.00
75157;BME280;63736;50.076;8.198;2023-11-21T17:34:30;99681.13;;;9.13;100.00
75157;BME280;63736;50.076;8.198;2023-11-21T17:36:55;99685.47;;;9.14;100.00
75157;BME280;63736;50.076;8.198;2023-11-21T17:39:21;99683.56;;;9.16;100.00
75157;BME280;63736;50.076;8.198;2023-11-21T17:41:46;99691.56;;;9.16;100.00
75157;BME280;63736;50.076;8.198;2023-11-21T17:44:11;99697.13;;;9.13;100.00
75157;BME280;63736;50.076;8.198;2023-11-21T17:46:38;99700.38;;;9.17;100.00
75157;BME280;63736;50.076;8.198;2023-11-21T17:49:03;99712.88;;;9.16;100.00
75157;BME280;63736;50.076;8.198;2023-11-21T17:51:28;99710.19;;;9.16;100.00
75157;BME280;63736;50.076;8.198;2023-11-21T17:53:55;99718.44;;;9.13;100.00
75157;BME280;63736;50.076;8.198;2023-11-21T17:56:26;99718.44;;;9.13;100.00
75157;BME280;63736;50.076;8.198;2023-11-21T17:58:51;99721.69;;;9.17;100.00
75157;BME280;63736;50.076;8.198;2023-11-21T18:01:19;99719.28;;;9.14;100.00
75157;BME280;63736;50.076;8.198;2023-11-21T18:03:45;99720.25;;;9.13;100.00
75157;BME280;63736;50.076;8.198;2023-11-21T18:06:10;99727.16;;;9.15;100.00
75157;BME280;63736;50.076;8.198;2023-11-21T18:08:37;99726.31;;;9.15;100.00
75157;BME280;63736;50.076;8.198;2023-11-21T18:11:05;99730.06;;;9.12;100.00
75157;BME280;63736;50.076;8.198;2023-11-21T18:13:31;99736.22;;;9.13;100.00
75157;BME280;63736;50.076;8.198;2023-11-21T18:15:56;99745.94;;;9.14;100.00
75157;BME280;63736;50.076;8.198;2023-11-21T18:18:21;99746.75;;;9.14;100.00
75157;BME280;63736;50.076;8.198;2023-11-21T18:20:47;99748.59;;;9.14;100.00
75157;BME280;63736;50.076;8.198;2023-11-21T18:23:12;99747.28;;;9.19;100.00
75157;BME280;63736;50.076;8.198;2023-11-21T18:25:37;99751.03;;;9.17;100.00
75157;BME280;63736;50.076;8.198;2023-11-21T18:28:04;99754.31;;;9.20;100.00
75157;BME280;63736;50.076;8.198;2023-11-21T18:30:29;99763.06;;;9.22;100.00
75157;BME280;63736;50.076;8.198;2023-11-21T18:32:55;99759.31;;;9.25;100.00
75157;BME280;63736;50.076;8.198;2023-11-21T18:35:20;99760.16;;;9.25;100.00
75157;BME280;63736;50.076;8.198;2023-11-21T18:37:45;99769.72;;;9.28;100.00
75157;BME280;63736;50.076;8.198;2023-11-21T18:40:14;99774.09;;;9.29;100.00
75157;BME280;63736;50.076;8.198;2023-11-21T18:42:41;99771.56;;;9.28;100.00
75157;BME280;63736;50.076;8.198;2023-11-21T18:45:06;99785.72;;;9.28;100.00
75157;BME280;63736;50.076;8.198;2023-11-21T18:47:32;99785.72;;;9.28;100.00
75157;BME280;63736;50.076;8.198;2023-11-21T18:49:57;99795.66;;;9.26;100.00
75157;BME280;63736;50.076;8.198;2023-11-21T18:52:23;99800.25;;;9.24;100.00
75157;BME280;63736;50.076;8.198;2023-11-21T18:54:52;99793.09;;;9.24;100.00
75157;BME280;63736;50.076;8.198;2023-11-21T18:57:17;99799.28;;;9.25;100.00
75157;BME280;63736;50.076;8.198;2023-11-21T18:59:43;99804.75;;;9.23;100.00
75157;BME280;63736;50.076;8.198;2023-11-21T19:05:33;99815.41;;;9.23;100.00
75157;BME280;63736;50.076;8.198;2023-11-21T19:07:58;99826.91;;;9.24;100.00
75157;BME280;63736;50.076;8.198;2023-11-21T19:10:23;99823.50;;;9.22;100.00
75157;BME280;63736;50.076;8.198;2023-11-21T19:12:52;99835.13;;;9.21;100.00
75157;BME280;63736;50.076;8.198;2023-11-21T19:15:19;99838.00;;;9.18;100.00
75157;BME280;63736;50.076;8.198;2023-11-21T19:17:44;99840.69;;;9.18;100.00
75157;BME280;63736;50.076;8.198;2023-11-21T19:20:10;99849.53;;;9.18;100.00
75157;BME280;63736;50.076;8.198;2023-11-21T19:22:35;99850.50;;;9.17;100.00
75157;BME280;63736;50.076;8.198;2023-11-21T19:25:03;99857.09;;;9.12;100.00
75157;BME280;63736;50.076;8.198;2023-11-21T19:27:29;99861.59;;;9.11;100.00
75157;BME280;63736;50.076;8.198;2023-11-21T19:29:55;99868.34;;;9.04;100.00
75157;BME280;63736;50.076;8.198;2023-11-21T19:32:21;99878.25;;;9.02;100.00
75157;BME280;63736;50.076;8.198;2023-11-21T19:34:46;99880.72;;;8.92;100.00
75157;BME280;63736;50.076;8.198;2023-11-21T19:37:11;99890.78;;;8.75;100.00
75157;BME280;63736;50.076;8.198;2023-11-21T19:39:37;99895.56;;;8.57;100.00
75157;BME280;63736;50.076;8.198;2023-11-21T19:42:39;99904.91;;;8.37;100.00
75157;BME280;63736;50.076;8.198;2023-11-21T19:45:05;99914.16;;;8.19;100.00
75157;BME280;63736;50.076;8.198;2023-11-21T19:47:30;99904.53;;;8.03;100.00
75157;BME280;63736;50.076;8.198;2023-11-21T19:49:58;99913.66;;;7.86;100.00
75157;BME280;63736;50.076;8.198;2023-11-21T19:52:23;99912.25;;;7.81;100.00
75157;BME280;63736;50.076;8.198;2023-11-21T19:54:50;99922.44;;;7.74;100.00
75157;BME280;63736;50.076;8.198;2023-11-21T19:57:15;99916.47;;;7.70;100.00
75157;BME280;63736;50.076;8.198;2023-11-21T19:59:41;99925.41;;;7.69;100.00
75157;BME280;63736;50.076;8.198;2023-11-21T20:02:09;99931.88;;;7.65;100.00
75157;BME280;63736;50.076;8.198;2023-11-21T20:04:34;99930.94;;;7.66;100.00
75157;BME280;63736;50.076;8.198;2023-11-21T20:07:00;99931.22;;;7.61;100.00
75157;BME280;63736;50.076;8.198;2023-11-21T20:09:25;99955.25;;;7.60;100.00
75157;BME280;63736;50.076;8.198;2023-11-21T20:11:50;99958.19;;;7.55;100.00
75157;BME280;63736;50.076;8.198;2023-11-21T20:14:16;99954.13;;;7.50;100.00
75157;BME280;63736;50.076;8.198;2023-11-21T20:16:43;99962.59;;;7.42;100.00
75157;BME280;63736;50.076;8.198;2023-11-21T20:19:10;99963.28;;;7.31;100.00
75157;BME280;63736;50.076;8.198;2023-11-21T20:24:58;99978.00;;;7.22;100.00
75157;BME280;63736;50.076;8.198;2023-11-21T20:27:23;99977.63;;;7.14;100.00
75157;BME280;63736;50.076;8.198;2023-11-21T20:29:48;99982.19;;;7.12;100.00
75157;BME280;63736;50.076;8.198;2023-11-21T20:32:14;99989.22;;;7.13;100.00
75157;BME280;63736;50.076;8.198;2023-11-21T20:34:39;99997.56;;;7.07;100.00
75157;BME280;63736;50.076;8.198;2023-11-21T20:37:05;99995.75;;;7.07;100.00
75157;BME280;63736;50.076;8.198;2023-11-21T20:39:30;100007.41;;;7.05;100.00
75157;BME280;63736;50.076;8.198;2023-11-21T20:41:57;100010.94;;;7.05;100.00
75157;BME280;63736;50.076;8.198;2023-11-21T20:44:23;100012.72;;;7.05;100.00
75157;BME280;63736;50.076;8.198;2023-11-21T20:46:48;100020.69;;;7.05;100.00
75157;BME280;63736;50.076;8.198;2023-11-21T20:49:13;100023.91;;;6.95;100.00
75157;BME280;63736;50.076;8.198;2023-11-21T20:51:40;100028.75;;;6.89;100.00
75157;BME280;63736;50.076;8.198;2023-11-21T20:54:06;100026.28;;;6.86;100.00
75157;BME280;63736;50.076;8.198;2023-11-21T20:56:33;100025.63;;;6.82;100.00
75157;BME280;63736;50.076;8.198;2023-11-21T20:58:58;100023.41;;;6.74;100.00
75157;BME280;63736;50.076;8.198;2023-11-21T21:01:33;100030.53;;;6.74;100.00
75157;BME280;63736;50.076;8.198;2023-11-21T21:04:00;100034.50;;;6.67;100.00
75157;BME280;63736;50.076;8.198;2023-11-21T21:06:27;100036.41;;;6.65;100.00
75157;BME280;63736;50.076;8.198;2023-11-21T21:08:53;100047.09;;;6.63;100.00
75157;BME280;63736;50.076;8.198;2023-11-21T21:11:20;100056.19;;;6.59;100.00
75157;BME280;63736;50.076;8.198;2023-11-21T21:13:46;100044.03;;;6.55;100.00
75157;BME280;63736;50.076;8.198;2023-11-21T21:16:11;100044.50;;;6.47;100.00
75157;BME280;63736;50.076;8.198;2023-11-21T21:18:36;100046.47;;;6.43;100.00
75157;BME280;63736;50.076;8.198;2023-11-21T21:21:02;100049.31;;;6.40;100.00
75157;BME280;63736;50.076;8.198;2023-11-21T21:23:27;100063.34;;;6.42;100.00
75157;BME280;63736;50.076;8.198;2023-11-21T21:25:53;100059.22;;;6.37;100.00
75157;BME280;63736;50.076;8.198;2023-11-21T21:28:20;100067.38;;;6.34;100.00
75157;BME280;63736;50.076;8.198;2023-11-21T21:30:45;100074.56;;;6.32;100.00
75157;BME280;63736;50.076;8.198;2023-11-21T21:33:11;100074.75;;;6.28;100.00
75157;BME280;63736;50.076;8.198;2023-11-21T21:38:58;100073.97;;;6.26;100.00
75157;BME280;63736;50.076;8.198;2023-11-21T21:41:23;100077.84;;;6.21;100.00
75157;BME280;63736;50.076;8.198;2023-11-21T21:43:50;100082.03;;;6.25;100.00
75157;BME280;63736;50.076;8.198;2023-11-21T21:46:16;100086.41;;;6.26;100.00
75157;BME280;63736;50.076;8.198;2023-11-21T21:48:42;100087.75;;;6.17;100.00
75157;BME280;63736;50.076;8.198;2023-11-21T21:51:18;100086.06;;;6.16;100.00
75157;BME280;63736;50.076;8.198;2023-11-21T21:53:44;100086.63;;;6.21;100.00
75157;BME280;63736;50.076;8.198;2023-11-21T21:56:09;100099.59;;;6.11;100.00
75157;BME280;63736;50.076;8.198;2023-11-21T21:58:35;100101.38;;;6.11;100.00
75157;BME280;63736;50.076;8.198;2023-11-21T22:01:02;100106.94;;;6.06;100.00
75157;BME280;63736;50.076;8.198;2023-11-21T22:03:30;100110.88;;;5.99;100.00
75157;BME280;63736;50.076;8.198;2023-11-21T22:05:56;100108.50;;;5.93;100.00
75157;BME280;63736;50.076;8.198;2023-11-21T22:08:26;100117.50;;;5.90;100.00
75157;BME280;63736;50.076;8.198;2023-11-21T22:10:52;100131.94;;;5.85;100.00
75157;BME280;63736;50.076;8.198;2023-11-21T22:13:17;100129.47;;;5.82;100.00
75157;BME280;63736;50.076;8.198;2023-11-21T22:15:42;100127.94;;;5.77;100.00
75157;BME280;63736;50.076;8.198;2023-11-21T22:18:08;100122.38;;;5.82;100.00
75157;BME280;63736;50.076;8.198;2023-11-21T22:20:34;100127.59;;;5.84;100.00
75157;BME280;63736;50.076;8.198;2023-11-21T22:23:00;100132.03;;;5.83;100.00
75157;BME280;63736;50.076;8.198;2023-11-21T22:25:26;100137.44;;;5.82;100.00
75157;BME280;63736;50.076;8.198;2023-11-21T22:27:51;100148.28;;;5.77;100.00
75157;BME280;63736;50.076;8.198;2023-11-21T22:30:17;100145.63;;;5.77;100.00
75157;BME280;63736;50.076;8.198;2023-11-21T22:32:43;100144.16;;;5.71;100.00
75157;BME280;63736;50.076;8.198;2023-11-21T22:35:08;100149.47;;;5.71;100.00
75157;BME280;63736;50.076;8.198;2023-11-21T22:37:34;100145.09;;;5.70;100.00
75157;BME280;63736;50.076;8.198;2023-11-21T22:39:59;100154.16;;;5.66;100.00
75157;BME280;63736;50.076;8.198;2023-11-21T22:42:25;100155.19;;;5.63;100.00
75157;BME280;63736;50.076;8.198;2023-11-21T22:44:50;100165.09;;;5.60;100.00
75157;BME280;63736;50.076;8.198;2023-11-21T22:47:15;100166.28;;;5.54;100.00
75157;BME280;63736;50.076;8.198;2023-11-21T22:49:41;100172.69;;;5.50;100.00
75157;BME280;63736;50.076;8.198;2023-11-21T22:52:06;100185.38;;;5.43;100.00
75157;BME280;63736;50.076;8.198;2023-11-21T22:54:32;100178.50;;;5.39;100.00
75157;BME280;63736;50.076;8.198;2023-11-21T22:56:57;100191.06;;;5.36;100.00
75157;BME280;63736;50.076;8.198;2023-11-21T22:59:23;100186.78;;;5.33;100.00
75157;BME280;63736;50.076;8.198;2023-11-21T23:01:49;100194.03;;;5.29;100.00
75157;BME280;63736;50.076;8.198;2023-11-21T23:04:15;100200.34;;;5.27;100.00
75157;BME280;63736;50.076;8.198;2023-11-21T23:06:43;100206.81;;;5.21;100.00
75157;BME280;63736;50.076;8.198;2023-11-21T23:09:11;100211.56;;;5.15;100.00
75157;BME280;63736;50.076;8.198;2023-11-21T23:11:36;100219.97;;;5.05;100.00
75157;BME280;63736;50.076;8.198;2023-11-21T23:14:02;100215.94;;;4.98;100.00
75157;BME280;63736;50.076;8.198;2023-11-21T23:16:27;100219.50;;;4.97;100.00
75157;BME280;63736;50.076;8.198;2023-11-21T23:18:52;100227.66;;;4.92;100.00
75157;BME280;63736;50.076;8.198;2023-11-21T23:21:18;100228.66;;;4.90;100.00
75157;BME280;63736;50.076;8.198;2023-11-21T23:23:43;100228.75;;;4.88;100.00
75157;BME280;63736;50.076;8.198;2023-11-21T23:26:08;100230.56;;;4.88;100.00
75157;BME280;63736;50.076;8.198;2023-11-21T23:28:35;100220.72;;;4.90;100.00
75157;BME280;63736;50.076;8.198;2023-11-21T23:31:01;100220.50;;;4.94;100.00
75157;BME280;63736;50.076;8.198;2023-11-21T23:33:26;100229.09;;;5.00;100.00
75157;BME280;63736;50.076;8.198;2023-11-21T23:35:56;100221.78;;;5.05;100.00
75157;BME280;63736;50.076;8.198;2023-11-21T23:38:21;100218.13;;;5.07;100.00
75157;BME280;63736;50.076;8.198;2023-11-21T23:40:47;100225.06;;;5.10;100.00
75157;BME280;63736;50.076;8.198;2023-11-21T23:43:12;100213.50;;;5.11;100.00
75157;BME280;63736;50.076;8.198;2023-11-21T23:45:37;100208.06;;;5.14;100.00
75157;BME280;63736;50.076;8.198;2023-11-21T23:48:03;100212.50;;;5.13;100.00
75157;BME280;63736;50.076;8.198;2023-11-21T23:50:29;100215.94;;;5.16;100.00
75157;BME280;63736;50.076;8.198;2023-11-21T23:52:54;100218.50;;;5.17;100.00
75157;BME280;63736;50.076;8.198;2023-11-21T23:55:20;100224.66;;;5.18;100.00
75157;BME280;63736;50.076;8.198;2023-11-21T23:57:45;100220.38;;;5.15;100.00
